Kullaa, Suomi

18. helmikuuta 2018 klo 22:10 (EET) (GMT +0200)
Pohjoisrannantie | | Change Station

Kork 127 ft 61.35 °N, 22.10 °E | Updated 12 minutes ago

Light Snow
Kevyttä lumisadetta
15.6 °F
Tuntuu kuin 16 °F
N
0.6
Tuuli Suunnaltaan vaihteleva Tuuli ilmansuunnasta Itä
Gusts 2.5 mph

Tänään
Korkea -- | Matala -- °F
--% Sateen mahd.
Eilen
Korkea -- | Matala -- °F
Precip. -- tuumaa
Ilmanpaine 30.24 tuumaa
Näkyvyys 6.2 mailia
Pilviä Pilvistä 2000 ft
Pilvistä 10000 ft
Tuulen hyytävyys 16 °F
Kastepiste 13 °F
Ilmankosteus 89%
Sademäärä 0.00 tuumaa
Lumensyvyys Ei saatavilla
8:06 AM 5:24 PM
Kasvava sirppi, 9% visible
METAR EFPO 181950Z AUTO 10004KT 9999 -SN BKN020/// BKN100/// M09/M11 Q1024
Ilmanpaine 30.24 tuumaa
Näkyvyys 6.2 mailia
Pilviä Pilvistä 2000 ft
Pilvistä 10000 ft
Tuulen hyytävyys 16 °F
Kastepiste 13 °F
Ilmankosteus 89%
Sademäärä 0.00 tuumaa
Lumensyvyys Ei saatavilla
8:06 AM 5:24 PM
Kasvava sirppi, 9% visible
METAR EFPO 181950Z AUTO 10004KT 9999 -SN BKN020/// BKN100/// M09/M11 Q1024

Get Severe Weather Alerts

Thanks for signing up!

Be on the lookout for a verification email in your inbox.

You'll start receiving the daily forecast at 6 AM.

×

10-Day Weather Forecast

×

Almanac

Tähtitiede

Feb. 18, 2018 Nousuaika Laskuaika
Valoisa aika
Porvarillinen hämärä
Nauttinen hämärä
Astronominen hämärä
Kuu
Näkyvän valon pituus
Päivän pituus
Tomorrow will be .
, % of the Moon is Illuminated

Tämän päivän ennätykset

Country Highs Country Lows

Community

WunderPhotos

Category 6

Welcome to Category 6. This is the collective home for Weather Underground's featured writeups by Dr. Jeff Masters (right), Bob Henson (left), Chris Burt, and other regular contributors.

Nearby

Ilmanlaatu

  Ilmanlaatu AQ Index Pollutant
Not available.

Lumensyvyys

Station Depth Korkeus

Maanjäristysaktiivisuus

Paikkakunta Distance Mag. Time & Date
Minimum magnitude displayed is 2.5.

Coastal Water Temperatures

Paikka Lämpötila

Stations

Lähimmät sääasemat

Aseman sijainti Lämpötila Tuulen hyytävyys Kastepiste Ilmankosteus Tuuli Precip. Kork Päivitetty Tyyppi